Current Weather

Chicago O'Hare International

Chicago, Illinois (KORD)

Report from: Monday, June 17, 2024 4:51 AM CDT
Current time: Monday, June 17, 2024 5:18 AM CDT

Nearby weather – Weather history – Daily summaries
Weather forecast

Temperature25.6°C (78.1°F)
Dew point20.0°C (68.0°F)
Winds 7 kts (3.6 m/s, 8.1 mph) South-Southwest (200°)
Visibility10 mi. (16.1 km)
Clouds Few clouds 25,000 ft. (7,620 m)
Altimeter29.88 in.Hg (1012 mB)
Relative humidity71 %
Density altitude1,618 ft. (493 m)
Sea-level pressure101.1 kPa (1011 mB, 29.85 in.Hg)
Remarks Automated weather observing station with precipitation discriminator
Flight conditions Visual Meteorological Conditions
Raw dataKORD 170951Z 20007KT 10SM FEW250 26/20 A2988 RMK AO2 SLP110 T02560200
An error has occurred. This application may no longer respond until reloaded. Reload 🗙